| Date | Time | Temp. (oF) | Dew Point (oF) | Rel. Hum. (%) | Press. (in.) | Wind Dir. | Wind Speed (mph) | Hourly Rainfall (in.) |
|
|---|---|---|---|---|---|---|---|---|---|
| 1 | miss | miss | miss | miss | miss | miss | miss | miss | |
| 2 | 08/11 | 22:53 | 73 | 72 | 97 | 30.11 | NE | 0 | 0.00 |
| 3 | 08/11 | 22:00 | 72 | 71 | 97 | 30.11 | W | 1 | 0.00 |
| 4 | 08/11 | 21:00 | 72 | 71 | 97 | 30.10 | ENE | 3 | 0.01 |
| 5 | 08/11 | 20:00 | 73 | 71 | 95 | 30.10 | NE | 5 | 0.00 |
| 6 | 08/11 | 19:00 | 73 | 70 | 93 | 30.09 | NE | 2 | 0.00 |
| 7 | 08/11 | 18:00 | 73 | 70 | 92 | 30.09 | NE | 4 | 0.00 |
| 8 | 08/11 | 17:00 | 73 | 70 | 92 | 30.07 | NE | 6 | 0.00 |
| 9 | 08/11 | 16:00 | 72 | 69 | 92 | 30.05 | NNE | 7 | 0.00 |
| 10 | 08/10 | 15:00 | 81 | 77 | 90 | 29.86 | NW | 11 | 0.01 |
| 11 | 08/10 | 14:00 | 88 | 76 | 70 | 29.85 | NW | 5 | 0.00 |
| 12 | 08/10 | 13:00 | 95 | 74 | 52 | 29.85 | WSW | 6 | 0.00 |
| 13 | 08/10 | 12:00 | 94 | 75 | 55 | 29.87 | WNW | 5 | 0.00 |
| 14 | 08/10 | 11:00 | 91 | 75 | 61 | 29.87 | S | 7 | 0.00 |
| 15 | 08/10 | 10:00 | 89 | 74 | 63 | 29.87 | WSW | 4 | 0.00 |
| 16 | miss | miss | miss | miss | miss | miss | miss | miss | |
| 17 | 08/10 | 03:32 | 83 | 14 | 8 | 9.00 | S | 4 | 8.00 |
| 18 | miss | miss | miss | miss | miss | miss | miss | miss | |
| 19 | 08/10 | 03:32 | 83 | 14 | 8 | 9.00 | S | 4 | 8.00 |
| 20 | miss | miss | miss | miss | miss | miss | miss | miss | |
| 21 | 08/10 | 03:32 | 83 | 14 | 8 | 9.00 | S | 4 | 8.00 |
| 22 | 08/10 | 03:00 | 83 | 76 | 82 | 29.86 | SSW | 4 | 0.00 |
| 23 | 08/10 | 02:00 | 84 | 77 | 80 | 29.89 | S | 3 | 0.00 |
| 24 | 08/10 | 01:00 | 85 | 77 | 79 | 29.89 | SW | 3 | 0.00 |